sensor_id;sensor_type;location;lat;lon;timestamp;P1;durP1;ratioP1;P2;durP2;ratioP2
64678;SDS011;51094;53.864;27.676;2022-12-20T00:01:24;4.80;;;4.70;;
64678;SDS011;51094;53.864;27.676;2022-12-20T00:03:54;4.50;;;4.40;;
64678;SDS011;51094;53.864;27.676;2022-12-20T00:06:23;4.43;;;4.32;;
64678;SDS011;51094;53.864;27.676;2022-12-20T00:08:54;4.60;;;4.50;;
64678;SDS011;51094;53.864;27.676;2022-12-20T00:11:23;4.45;;;4.35;;
64678;SDS011;51094;53.864;27.676;2022-12-20T00:13:50;4.45;;;4.35;;
64678;SDS011;51094;53.864;27.676;2022-12-20T00:16:21;4.53;;;4.43;;
64678;SDS011;51094;53.864;27.676;2022-12-20T00:18:51;4.32;;;4.22;;
64678;SDS011;51094;53.864;27.676;2022-12-20T00:21:20;4.32;;;4.22;;
64678;SDS011;51094;53.864;27.676;2022-12-20T00:23:47;4.43;;;4.32;;
64678;SDS011;51094;53.864;27.676;2022-12-20T00:26:15;4.10;;;4.00;;
64678;SDS011;51094;53.864;27.676;2022-12-20T00:28:45;3.75;;;3.65;;
64678;SDS011;51094;53.864;27.676;2022-12-20T00:31:13;4.25;;;4.15;;
64678;SDS011;51094;53.864;27.676;2022-12-20T00:33:46;4.35;;;4.25;;
64678;SDS011;51094;53.864;27.676;2022-12-20T00:36:16;4.20;;;4.10;;
64678;SDS011;51094;53.864;27.676;2022-12-20T00:38:45;4.00;;;3.90;;
64678;SDS011;51094;53.864;27.676;2022-12-20T00:41:13;4.18;;;4.07;;
64678;SDS011;51094;53.864;27.676;2022-12-20T00:43:42;4.20;;;4.10;;
64678;SDS011;51094;53.864;27.676;2022-12-20T00:46:10;4.03;;;3.92;;
64678;SDS011;51094;53.864;27.676;2022-12-20T00:48:38;4.20;;;4.10;;
64678;SDS011;51094;53.864;27.676;2022-12-20T00:51:09;3.85;;;3.75;;
64678;SDS011;51094;53.864;27.676;2022-12-20T00:53:38;3.50;;;3.40;;
64678;SDS011;51094;53.864;27.676;2022-12-20T00:56:05;3.70;;;3.60;;
64678;SDS011;51094;53.864;27.676;2022-12-20T00:58:34;3.85;;;3.75;;
64678;SDS011;51094;53.864;27.676;2022-12-20T01:01:03;3.63;;;3.53;;
64678;SDS011;51094;53.864;27.676;2022-12-20T01:03:31;3.47;;;3.38;;
64678;SDS011;51094;53.864;27.676;2022-12-20T01:05:59;3.63;;;3.53;;
64678;SDS011;51094;53.864;27.676;2022-12-20T01:08:27;3.58;;;3.47;;
64678;SDS011;51094;53.864;27.676;2022-12-20T01:11:00;3.30;;;3.20;;
64678;SDS011;51094;53.864;27.676;2022-12-20T01:13:29;3.38;;;3.28;;
64678;SDS011;51094;53.864;27.676;2022-12-20T01:16:02;3.30;;;3.20;;
64678;SDS011;51094;53.864;27.676;2022-12-20T01:18:37;3.30;;;3.20;;
64678;SDS011;51094;53.864;27.676;2022-12-20T01:21:06;3.75;;;3.65;;
64678;SDS011;51094;53.864;27.676;2022-12-20T01:23:35;3.90;;;3.80;;
64678;SDS011;51094;53.864;27.676;2022-12-20T01:26:03;3.67;;;3.58;;
64678;SDS011;51094;53.864;27.676;2022-12-20T01:28:31;3.72;;;3.63;;
64678;SDS011;51094;53.864;27.676;2022-12-20T01:30:58;3.50;;;3.40;;
64678;SDS011;51094;53.864;27.676;2022-12-20T01:33:25;3.50;;;3.40;;
64678;SDS011;51094;53.864;27.676;2022-12-20T01:38:24;3.80;;;3.70;;
64678;SDS011;51094;53.864;27.676;2022-12-20T01:40:51;3.67;;;3.58;;
64678;SDS011;51094;53.864;27.676;2022-12-20T01:43:18;4.03;;;3.92;;
64678;SDS011;51094;53.864;27.676;2022-12-20T01:45:46;3.70;;;3.60;;
64678;SDS011;51094;53.864;27.676;2022-12-20T01:48:14;3.80;;;3.70;;
64678;SDS011;51094;53.864;27.676;2022-12-20T01:50:45;3.58;;;3.47;;
64678;SDS011;51094;53.864;27.676;2022-12-20T01:53:13;3.75;;;3.65;;
64678;SDS011;51094;53.864;27.676;2022-12-20T01:55:42;3.88;;;3.78;;
64678;SDS011;51094;53.864;27.676;2022-12-20T01:58:10;4.20;;;4.10;;
64678;SDS011;51094;53.864;27.676;2022-12-20T02:00:41;3.60;;;3.50;;
64678;SDS011;51094;53.864;27.676;2022-12-20T02:03:08;3.67;;;3.58;;
64678;SDS011;51094;53.864;27.676;2022-12-20T02:05:39;3.58;;;3.47;;
64678;SDS011;51094;53.864;27.676;2022-12-20T02:08:08;3.60;;;3.50;;
64678;SDS011;51094;53.864;27.676;2022-12-20T02:10:43;3.05;;;2.97;;
64678;SDS011;51094;53.864;27.676;2022-12-20T02:13:36;3.63;;;3.53;;
64678;SDS011;51094;53.864;27.676;2022-12-20T02:16:11;4.55;;;4.45;;
64678;SDS011;51094;53.864;27.676;2022-12-20T02:18:51;3.97;;;3.88;;
64678;SDS011;51094;53.864;27.676;2022-12-20T02:21:43;4.10;;;4.00;;
64678;SDS011;51094;53.864;27.676;2022-12-20T02:32:35;3.63;;;3.53;;
64678;SDS011;51094;53.864;27.676;2022-12-20T02:35:08;4.00;;;3.90;;
64678;SDS011;51094;53.864;27.676;2022-12-20T02:37:36;3.83;;;3.72;;
64678;SDS011;51094;53.864;27.676;2022-12-20T02:40:13;3.80;;;3.70;;
64678;SDS011;51094;53.864;27.676;2022-12-20T02:42:41;3.70;;;3.60;;
64678;SDS011;51094;53.864;27.676;2022-12-20T02:45:10;3.30;;;3.20;;
64678;SDS011;51094;53.864;27.676;2022-12-20T02:47:54;4.00;;;3.90;;
64678;SDS011;51094;53.864;27.676;2022-12-20T02:50:34;3.67;;;3.58;;
64678;SDS011;51094;53.864;27.676;2022-12-20T02:53:05;3.75;;;3.65;;
64678;SDS011;51094;53.864;27.676;2022-12-20T02:58:45;3.72;;;3.63;;
64678;SDS011;51094;53.864;27.676;2022-12-20T03:01:20;3.60;;;3.50;;
64678;SDS011;51094;53.864;27.676;2022-12-20T03:03:54;4.10;;;4.00;;
64678;SDS011;51094;53.864;27.676;2022-12-20T03:06:23;4.10;;;4.00;;
64678;SDS011;51094;53.864;27.676;2022-12-20T03:08:50;3.97;;;3.88;;
64678;SDS011;51094;53.864;27.676;2022-12-20T03:11:17;3.95;;;3.85;;
64678;SDS011;51094;53.864;27.676;2022-12-20T03:13:45;3.80;;;3.70;;
64678;SDS011;51094;53.864;27.676;2022-12-20T03:16:12;4.75;;;4.65;;
64678;SDS011;51094;53.864;27.676;2022-12-20T03:18:39;4.57;;;4.47;;
64678;SDS011;51094;53.864;27.676;2022-12-20T03:21:06;4.30;;;4.20;;
64678;SDS011;51094;53.864;27.676;2022-12-20T03:23:33;4.07;;;3.97;;
64678;SDS011;51094;53.864;27.676;2022-12-20T03:25:59;4.20;;;4.10;;
64678;SDS011;51094;53.864;27.676;2022-12-20T03:28:34;4.90;;;4.80;;
64678;SDS011;51094;53.864;27.676;2022-12-20T03:31:00;4.60;;;4.50;;
64678;SDS011;51094;53.864;27.676;2022-12-20T03:33:30;5.00;;;4.90;;
64678;SDS011;51094;53.864;27.676;2022-12-20T03:36:00;4.70;;;4.60;;
64678;SDS011;51094;53.864;27.676;2022-12-20T03:38:27;4.53;;;4.43;;
64678;SDS011;51094;53.864;27.676;2022-12-20T03:40:54;4.68;;;4.57;;
64678;SDS011;51094;53.864;27.676;2022-12-20T03:43:21;4.43;;;4.32;;
64678;SDS011;51094;53.864;27.676;2022-12-20T03:45:48;4.38;;;4.28;;
64678;SDS011;51094;53.864;27.676;2022-12-20T03:48:15;4.25;;;4.15;;
64678;SDS011;51094;53.864;27.676;2022-12-20T03:50:42;4.20;;;4.10;;
64678;SDS011;51094;53.864;27.676;2022-12-20T03:53:09;4.88;;;4.78;;
64678;SDS011;51094;53.864;27.676;2022-12-20T03:55:35;4.50;;;4.40;;
64678;SDS011;51094;53.864;27.676;2022-12-20T03:58:02;4.75;;;4.65;;
64678;SDS011;51094;53.864;27.676;2022-12-20T04:00:32;4.53;;;4.43;;
64678;SDS011;51094;53.864;27.676;2022-12-20T04:03:18;3.80;;;3.70;;
64678;SDS011;51094;53.864;27.676;2022-12-20T04:05:45;4.30;;;4.20;;
64678;SDS011;51094;53.864;27.676;2022-12-20T04:08:12;4.30;;;4.20;;
64678;SDS011;51094;53.864;27.676;2022-12-20T04:10:39;4.90;;;4.80;;
64678;SDS011;51094;53.864;27.676;2022-12-20T04:15:57;4.18;;;4.07;;
64678;SDS011;51094;53.864;27.676;2022-12-20T04:18:29;4.07;;;3.97;;
64678;SDS011;51094;53.864;27.676;2022-12-20T04:21:02;4.50;;;4.40;;
64678;SDS011;51094;53.864;27.676;2022-12-20T04:23:32;4.20;;;4.10;;
64678;SDS011;51094;53.864;27.676;2022-12-20T04:26:01;4.60;;;4.50;;
64678;SDS011;51094;53.864;27.676;2022-12-20T04:28:32;4.20;;;4.10;;
64678;SDS011;51094;53.864;27.676;2022-12-20T04:31:00;4.00;;;3.90;;
64678;SDS011;51094;53.864;27.676;2022-12-20T04:33:31;4.43;;;4.32;;
64678;SDS011;51094;53.864;27.676;2022-12-20T04:35:59;4.20;;;4.10;;
64678;SDS011;51094;53.864;27.676;2022-12-20T04:38:27;4.20;;;4.10;;
64678;SDS011;51094;53.864;27.676;2022-12-20T04:40:55;4.38;;;4.28;;
64678;SDS011;51094;53.864;27.676;2022-12-20T04:43:23;4.03;;;3.92;;
64678;SDS011;51094;53.864;27.676;2022-12-20T04:48:25;4.40;;;4.30;;
64678;SDS011;51094;53.864;27.676;2022-12-20T04:51:13;4.10;;;4.00;;
64678;SDS011;51094;53.864;27.676;2022-12-20T04:53:42;4.25;;;4.15;;
64678;SDS011;51094;53.864;27.676;2022-12-20T04:56:25;3.92;;;3.83;;
64678;SDS011;51094;53.864;27.676;2022-12-20T04:58:58;4.35;;;4.25;;
64678;SDS011;51094;53.864;27.676;2022-12-20T05:01:25;4.10;;;4.00;;
64678;SDS011;51094;53.864;27.676;2022-12-20T05:03:53;4.50;;;4.40;;
64678;SDS011;51094;53.864;27.676;2022-12-20T05:06:20;4.05;;;3.95;;
64678;SDS011;51094;53.864;27.676;2022-12-20T05:08:48;3.83;;;3.72;;
64678;SDS011;51094;53.864;27.676;2022-12-20T05:11:15;4.68;;;4.57;;
64678;SDS011;51094;53.864;27.676;2022-12-20T05:13:42;4.45;;;4.35;;
64678;SDS011;51094;53.864;27.676;2022-12-20T05:16:09;4.03;;;3.92;;
64678;SDS011;51094;53.864;27.676;2022-12-20T05:18:36;4.18;;;4.07;;
64678;SDS011;51094;53.864;27.676;2022-12-20T05:21:13;4.30;;;4.20;;
64678;SDS011;51094;53.864;27.676;2022-12-20T05:23:59;3.97;;;3.88;;
64678;SDS011;51094;53.864;27.676;2022-12-20T05:26:55;3.97;;;3.88;;
64678;SDS011;51094;53.864;27.676;2022-12-20T05:29:22;4.97;;;4.88;;
64678;SDS011;51094;53.864;27.676;2022-12-20T05:31:49;4.32;;;4.22;;
64678;SDS011;51094;53.864;27.676;2022-12-20T05:34:16;4.40;;;4.30;;
64678;SDS011;51094;53.864;27.676;2022-12-20T05:36:47;4.00;;;3.90;;
64678;SDS011;51094;53.864;27.676;2022-12-20T05:39:14;4.55;;;4.45;;
64678;SDS011;51094;53.864;27.676;2022-12-20T05:41:43;4.32;;;4.22;;
64678;SDS011;51094;53.864;27.676;2022-12-20T05:44:11;4.57;;;4.47;;
64678;SDS011;51094;53.864;27.676;2022-12-20T05:49:13;4.47;;;4.38;;
64678;SDS011;51094;53.864;27.676;2022-12-20T05:51:40;4.90;;;4.70;;
64678;SDS011;51094;53.864;27.676;2022-12-20T05:54:17;4.82;;;4.72;;
64678;SDS011;51094;53.864;27.676;2022-12-20T05:56:51;5.10;;;5.00;;
64678;SDS011;51094;53.864;27.676;2022-12-20T05:59:23;4.22;;;4.13;;
64678;SDS011;51094;53.864;27.676;2022-12-20T06:01:50;4.93;;;4.82;;
64678;SDS011;51094;53.864;27.676;2022-12-20T06:04:17;4.53;;;4.43;;
64678;SDS011;51094;53.864;27.676;2022-12-20T06:06:45;4.88;;;4.78;;
64678;SDS011;51094;53.864;27.676;2022-12-20T06:09:16;4.75;;;4.65;;
64678;SDS011;51094;53.864;27.676;2022-12-20T06:11:50;4.55;;;4.45;;
64678;SDS011;51094;53.864;27.676;2022-12-20T06:14:16;5.03;;;4.93;;
64678;SDS011;51094;53.864;27.676;2022-12-20T06:16:46;5.18;;;5.07;;
64678;SDS011;51094;53.864;27.676;2022-12-20T06:19:15;4.57;;;4.47;;
64678;SDS011;51094;53.864;27.676;2022-12-20T06:21:48;4.53;;;4.43;;
64678;SDS011;51094;53.864;27.676;2022-12-20T06:24:19;4.90;;;4.80;;
64678;SDS011;51094;53.864;27.676;2022-12-20T06:26:47;4.88;;;4.78;;
64678;SDS011;51094;53.864;27.676;2022-12-20T06:29:13;5.10;;;5.00;;
64678;SDS011;51094;53.864;27.676;2022-12-20T06:31:48;4.75;;;4.63;;
64678;SDS011;51094;53.864;27.676;2022-12-20T06:34:15;4.80;;;4.70;;
64678;SDS011;51094;53.864;27.676;2022-12-20T06:36:43;6.22;;;6.03;;
64678;SDS011;51094;53.864;27.676;2022-12-20T06:39:16;4.80;;;4.70;;
64678;SDS011;51094;53.864;27.676;2022-12-20T06:41:51;4.88;;;4.78;;
64678;SDS011;51094;53.864;27.676;2022-12-20T06:44:18;5.15;;;5.05;;
64678;SDS011;51094;53.864;27.676;2022-12-20T06:46:44;4.90;;;4.80;;
64678;SDS011;51094;53.864;27.676;2022-12-20T06:49:12;4.75;;;4.65;;
64678;SDS011;51094;53.864;27.676;2022-12-20T06:51:39;4.70;;;4.60;;
64678;SDS011;51094;53.864;27.676;2022-12-20T06:54:05;5.18;;;5.00;;
64678;SDS011;51094;53.864;27.676;2022-12-20T06:56:33;5.45;;;5.35;;
64678;SDS011;51094;53.864;27.676;2022-12-20T06:59:08;5.53;;;5.32;;
64678;SDS011;51094;53.864;27.676;2022-12-20T07:01:35;5.38;;;5.28;;
64678;SDS011;51094;53.864;27.676;2022-12-20T07:04:02;5.43;;;5.32;;
64678;SDS011;51094;53.864;27.676;2022-12-20T07:06:29;5.07;;;4.97;;
64678;SDS011;51094;53.864;27.676;2022-12-20T07:08:56;5.63;;;5.53;;
64678;SDS011;51094;53.864;27.676;2022-12-20T07:11:23;6.00;;;5.80;;
64678;SDS011;51094;53.864;27.676;2022-12-20T07:13:57;5.65;;;5.55;;
64678;SDS011;51094;53.864;27.676;2022-12-20T07:16:24;5.75;;;5.65;;
64678;SDS011;51094;53.864;27.676;2022-12-20T07:18:52;5.93;;;5.72;;
64678;SDS011;51094;53.864;27.676;2022-12-20T07:21:22;5.18;;;4.97;;
64678;SDS011;51094;53.864;27.676;2022-12-20T07:23:49;4.93;;;4.82;;
64678;SDS011;51094;53.864;27.676;2022-12-20T07:26:15;5.80;;;5.70;;
64678;SDS011;51094;53.864;27.676;2022-12-20T07:28:43;5.60;;;5.40;;
64678;SDS011;51094;53.864;27.676;2022-12-20T07:31:11;5.00;;;4.90;;
64678;SDS011;51094;53.864;27.676;2022-12-20T07:33:38;5.85;;;5.75;;
64678;SDS011;51094;53.864;27.676;2022-12-20T07:36:06;4.97;;;4.88;;
64678;SDS011;51094;53.864;27.676;2022-12-20T07:38:35;4.82;;;4.72;;
64678;SDS011;51094;53.864;27.676;2022-12-20T07:41:09;5.20;;;5.10;;
64678;SDS011;51094;53.864;27.676;2022-12-20T07:43:41;4.78;;;4.68;;
64678;SDS011;51094;53.864;27.676;2022-12-20T07:46:09;5.00;;;4.90;;
64678;SDS011;51094;53.864;27.676;2022-12-20T07:48:38;5.55;;;5.45;;
64678;SDS011;51094;53.864;27.676;2022-12-20T07:51:06;4.90;;;4.80;;
64678;SDS011;51094;53.864;27.676;2022-12-20T07:53:37;5.43;;;5.32;;
64678;SDS011;51094;53.864;27.676;2022-12-20T07:56:09;4.60;;;4.50;;
64678;SDS011;51094;53.864;27.676;2022-12-20T07:58:38;5.10;;;5.00;;
64678;SDS011;51094;53.864;27.676;2022-12-20T08:01:07;5.45;;;5.35;;
64678;SDS011;51094;53.864;27.676;2022-12-20T08:03:37;4.82;;;4.72;;
64678;SDS011;51094;53.864;27.676;2022-12-20T08:06:09;4.75;;;4.65;;
64678;SDS011;51094;53.864;27.676;2022-12-20T08:08:37;6.25;;;6.07;;
64678;SDS011;51094;53.864;27.676;2022-12-20T08:11:13;5.25;;;5.15;;
64678;SDS011;51094;53.864;27.676;2022-12-20T08:13:40;4.90;;;4.80;;
64678;SDS011;51094;53.864;27.676;2022-12-20T08:16:13;4.82;;;4.72;;
64678;SDS011;51094;53.864;27.676;2022-12-20T08:18:40;5.10;;;5.00;;
64678;SDS011;51094;53.864;27.676;2022-12-20T08:21:07;4.75;;;4.65;;
64678;SDS011;51094;53.864;27.676;2022-12-20T08:23:33;5.63;;;5.50;;
64678;SDS011;51094;53.864;27.676;2022-12-20T08:26:00;5.10;;;5.00;;
64678;SDS011;51094;53.864;27.676;2022-12-20T08:28:27;4.97;;;4.88;;
64678;SDS011;51094;53.864;27.676;2022-12-20T08:31:04;5.00;;;4.90;;
64678;SDS011;51094;53.864;27.676;2022-12-20T08:33:33;5.15;;;5.05;;
64678;SDS011;51094;53.864;27.676;2022-12-20T08:36:03;4.90;;;4.80;;
64678;SDS011;51094;53.864;27.676;2022-12-20T08:38:36;5.10;;;5.00;;
64678;SDS011;51094;53.864;27.676;2022-12-20T08:41:07;5.15;;;5.05;;
64678;SDS011;51094;53.864;27.676;2022-12-20T08:43:36;5.22;;;5.10;;
64678;SDS011;51094;53.864;27.676;2022-12-20T08:46:03;5.20;;;5.10;;
64678;SDS011;51094;53.864;27.676;2022-12-20T08:48:32;5.03;;;4.93;;
64678;SDS011;51094;53.864;27.676;2022-12-20T08:51:00;5.18;;;5.07;;
64678;SDS011;51094;53.864;27.676;2022-12-20T08:53:29;5.38;;;5.28;;
64678;SDS011;51094;53.864;27.676;2022-12-20T08:56:03;5.07;;;4.97;;
64678;SDS011;51094;53.864;27.676;2022-12-20T08:58:30;5.72;;;5.53;;
64678;SDS011;51094;53.864;27.676;2022-12-20T09:00:58;5.18;;;5.07;;
64678;SDS011;51094;53.864;27.676;2022-12-20T09:03:32;5.43;;;5.22;;
64678;SDS011;51094;53.864;27.676;2022-12-20T09:06:00;5.22;;;5.13;;
64678;SDS011;51094;53.864;27.676;2022-12-20T09:08:35;5.18;;;5.07;;
64678;SDS011;51094;53.864;27.676;2022-12-20T09:11:13;5.15;;;5.05;;
64678;SDS011;51094;53.864;27.676;2022-12-20T09:13:43;5.40;;;5.30;;
64678;SDS011;51094;53.864;27.676;2022-12-20T09:16:12;5.93;;;5.72;;
64678;SDS011;51094;53.864;27.676;2022-12-20T09:18:40;5.70;;;5.60;;
64678;SDS011;51094;53.864;27.676;2022-12-20T09:21:08;5.47;;;5.38;;
64678;SDS011;51094;53.864;27.676;2022-12-20T09:23:36;5.65;;;5.45;;
64678;SDS011;51094;53.864;27.676;2022-12-20T09:26:03;5.03;;;4.93;;
64678;SDS011;51094;53.864;27.676;2022-12-20T09:28:32;5.82;;;5.72;;
64678;SDS011;51094;53.864;27.676;2022-12-20T09:31:00;5.68;;;5.57;;
64678;SDS011;51094;53.864;27.676;2022-12-20T09:33:29;5.65;;;5.55;;
64678;SDS011;51094;53.864;27.676;2022-12-20T09:35:57;5.00;;;4.90;;
64678;SDS011;51094;53.864;27.676;2022-12-20T09:38:24;5.93;;;5.82;;
64678;SDS011;51094;53.864;27.676;2022-12-20T09:40:52;5.03;;;4.93;;
64678;SDS011;51094;53.864;27.676;2022-12-20T09:43:21;6.10;;;6.00;;
64678;SDS011;51094;53.864;27.676;2022-12-20T09:45:51;5.22;;;5.13;;
64678;SDS011;51094;53.864;27.676;2022-12-20T09:48:38;5.07;;;4.97;;
64678;SDS011;51094;53.864;27.676;2022-12-20T09:54:28;5.05;;;4.95;;
64678;SDS011;51094;53.864;27.676;2022-12-20T09:59:11;5.35;;;5.25;;
64678;SDS011;51094;53.864;27.676;2022-12-20T10:01:44;5.47;;;5.38;;
64678;SDS011;51094;53.864;27.676;2022-12-20T10:04:23;5.13;;;5.03;;
64678;SDS011;51094;53.864;27.676;2022-12-20T10:12:13;5.88;;;5.78;;
64678;SDS011;51094;53.864;27.676;2022-12-20T10:14:48;5.25;;;5.15;;
64678;SDS011;51094;53.864;27.676;2022-12-20T10:22:57;5.60;;;5.50;;
64678;SDS011;51094;53.864;27.676;2022-12-20T10:25:31;5.55;;;5.45;;
64678;SDS011;51094;53.864;27.676;2022-12-20T10:27:59;5.38;;;5.28;;
64678;SDS011;51094;53.864;27.676;2022-12-20T10:32:59;6.60;;;6.50;;
64678;SDS011;51094;53.864;27.676;2022-12-20T10:35:29;6.22;;;6.03;;
64678;SDS011;51094;53.864;27.676;2022-12-20T10:38:04;6.93;;;6.82;;
64678;SDS011;51094;53.864;27.676;2022-12-20T10:40:46;5.05;;;4.95;;
64678;SDS011;51094;53.864;27.676;2022-12-20T10:43:45;5.05;;;4.95;;
64678;SDS011;51094;53.864;27.676;2022-12-20T10:46:15;5.00;;;4.90;;
64678;SDS011;51094;53.864;27.676;2022-12-20T10:48:43;5.05;;;4.95;;
64678;SDS011;51094;53.864;27.676;2022-12-20T10:51:17;5.05;;;4.95;;
64678;SDS011;51094;53.864;27.676;2022-12-20T10:53:57;5.32;;;5.22;;
64678;SDS011;51094;53.864;27.676;2022-12-20T10:56:29;5.10;;;5.00;;
64678;SDS011;51094;53.864;27.676;2022-12-20T10:58:59;5.68;;;5.57;;
64678;SDS011;51094;53.864;27.676;2022-12-20T11:01:33;5.60;;;5.40;;
64678;SDS011;51094;53.864;27.676;2022-12-20T11:04:06;5.32;;;5.22;;
64678;SDS011;51094;53.864;27.676;2022-12-20T11:06:51;6.43;;;6.32;;
64678;SDS011;51094;53.864;27.676;2022-12-20T11:09:23;5.57;;;5.47;;
64678;SDS011;51094;53.864;27.676;2022-12-20T11:11:57;5.47;;;5.38;;
64678;SDS011;51094;53.864;27.676;2022-12-20T11:14:35;6.55;;;6.35;;
64678;SDS011;51094;53.864;27.676;2022-12-20T11:33:40;6.20;;;6.10;;
64678;SDS011;51094;53.864;27.676;2022-12-20T11:39:14;7.18;;;7.03;;
64678;SDS011;51094;53.864;27.676;2022-12-20T11:41:59;7.05;;;6.85;;
64678;SDS011;51094;53.864;27.676;2022-12-20T11:45:20;6.72;;;6.63;;
64678;SDS011;51094;53.864;27.676;2022-12-20T11:53:22;7.28;;;7.07;;
64678;SDS011;51094;53.864;27.676;2022-12-20T11:58:28;6.40;;;6.30;;
64678;SDS011;51094;53.864;27.676;2022-12-20T12:01:06;6.30;;;6.20;;
64678;SDS011;51094;53.864;27.676;2022-12-20T12:03:40;7.38;;;7.18;;
64678;SDS011;51094;53.864;27.676;2022-12-20T12:06:11;6.82;;;6.65;;
64678;SDS011;51094;53.864;27.676;2022-12-20T12:08:49;8.07;;;7.88;;
64678;SDS011;51094;53.864;27.676;2022-12-20T12:11:24;6.88;;;6.68;;
64678;SDS011;51094;53.864;27.676;2022-12-20T12:14:29;7.00;;;6.80;;
64678;SDS011;51094;53.864;27.676;2022-12-20T12:17:20;7.75;;;7.55;;
64678;SDS011;51094;53.864;27.676;2022-12-20T12:23:02;6.30;;;6.10;;
64678;SDS011;51094;53.864;27.676;2022-12-20T12:25:32;5.78;;;5.68;;
64678;SDS011;51094;53.864;27.676;2022-12-20T12:27:59;6.25;;;6.07;;
64678;SDS011;51094;53.864;27.676;2022-12-20T12:30:26;6.75;;;6.55;;
64678;SDS011;51094;53.864;27.676;2022-12-20T12:33:04;7.22;;;7.07;;
64678;SDS011;51094;53.864;27.676;2022-12-20T12:46:45;6.60;;;6.40;;
64678;SDS011;51094;53.864;27.676;2022-12-20T12:49:19;7.40;;;7.22;;
64678;SDS011;51094;53.864;27.676;2022-12-20T12:51:49;6.93;;;6.73;;
64678;SDS011;51094;53.864;27.676;2022-12-20T12:57:21;6.75;;;6.65;;
64678;SDS011;51094;53.864;27.676;2022-12-20T12:59:48;6.78;;;6.68;;
64678;SDS011;51094;53.864;27.676;2022-12-20T13:07:27;7.38;;;7.20;;
64678;SDS011;51094;53.864;27.676;2022-12-20T13:15:35;8.45;;;8.25;;
64678;SDS011;51094;53.864;27.676;2022-12-20T13:20:27;6.60;;;6.45;;
64678;SDS011;51094;53.864;27.676;2022-12-20T13:23:10;8.07;;;7.88;;
64678;SDS011;51094;53.864;27.676;2022-12-20T13:25:41;7.10;;;6.90;;
64678;SDS011;51094;53.864;27.676;2022-12-20T13:41:10;7.05;;;6.88;;
64678;SDS011;51094;53.864;27.676;2022-12-20T13:43:45;7.43;;;7.22;;
64678;SDS011;51094;53.864;27.676;2022-12-20T13:49:20;8.20;;;8.00;;
64678;SDS011;51094;53.864;27.676;2022-12-20T13:54:40;7.05;;;6.85;;
64678;SDS011;51094;53.864;27.676;2022-12-20T13:57:16;8.10;;;7.90;;
64678;SDS011;51094;53.864;27.676;2022-12-20T13:59:52;7.63;;;7.43;;
64678;SDS011;51094;53.864;27.676;2022-12-20T14:02:32;8.68;;;8.48;;
64678;SDS011;51094;53.864;27.676;2022-12-20T14:05:04;8.65;;;8.45;;
64678;SDS011;51094;53.864;27.676;2022-12-20T14:07:39;7.53;;;7.32;;
64678;SDS011;51094;53.864;27.676;2022-12-20T14:10:17;7.82;;;7.63;;
64678;SDS011;51094;53.864;27.676;2022-12-20T14:12:52;7.22;;;7.03;;
64678;SDS011;51094;53.864;27.676;2022-12-20T14:17:54;8.70;;;8.50;;
64678;SDS011;51094;53.864;27.676;2022-12-20T14:20:25;8.30;;;8.10;;
64678;SDS011;51094;53.864;27.676;2022-12-20T14:28:02;7.82;;;7.70;;
64678;SDS011;51094;53.864;27.676;2022-12-20T14:30:32;11.00;;;10.70;;
64678;SDS011;51094;53.864;27.676;2022-12-20T14:33:02;8.10;;;7.90;;
64678;SDS011;51094;53.864;27.676;2022-12-20T14:35:28;8.00;;;7.80;;
64678;SDS011;51094;53.864;27.676;2022-12-20T14:37:57;8.27;;;8.07;;
64678;SDS011;51094;53.864;27.676;2022-12-20T14:40:26;8.77;;;8.57;;
64678;SDS011;51094;53.864;27.676;2022-12-20T14:42:53;9.23;;;8.93;;
64678;SDS011;51094;53.864;27.676;2022-12-20T14:45:22;8.57;;;8.38;;
64678;SDS011;51094;53.864;27.676;2022-12-20T14:48:01;8.85;;;8.65;;
64678;SDS011;51094;53.864;27.676;2022-12-20T14:50:33;10.38;;;10.18;;
64678;SDS011;51094;53.864;27.676;2022-12-20T14:53:02;9.65;;;9.35;;
64678;SDS011;51094;53.864;27.676;2022-12-20T14:55:31;12.48;;;12.18;;
64678;SDS011;51094;53.864;27.676;2022-12-20T14:58:05;13.55;;;13.25;;
64678;SDS011;51094;53.864;27.676;2022-12-20T15:01:03;15.68;;;15.32;;
64678;SDS011;51094;53.864;27.676;2022-12-20T15:03:50;13.55;;;13.25;;
64678;SDS011;51094;53.864;27.676;2022-12-20T15:09:11;16.33;;;15.93;;
64678;SDS011;51094;53.864;27.676;2022-12-20T15:11:38;10.15;;;9.85;;
64678;SDS011;51094;53.864;27.676;2022-12-20T15:16:56;9.23;;;9.02;;
64678;SDS011;51094;53.864;27.676;2022-12-20T15:19:23;9.75;;;9.45;;
64678;SDS011;51094;53.864;27.676;2022-12-20T15:21:50;8.77;;;8.57;;
64678;SDS011;51094;53.864;27.676;2022-12-20T15:24:19;9.18;;;8.98;;
64678;SDS011;51094;53.864;27.676;2022-12-20T15:26:50;8.90;;;8.70;;
64678;SDS011;51094;53.864;27.676;2022-12-20T15:31:45;11.27;;;10.98;;
64678;SDS011;51094;53.864;27.676;2022-12-20T15:34:18;10.27;;;9.98;;
64678;SDS011;51094;53.864;27.676;2022-12-20T15:37:14;14.45;;;14.05;;
64678;SDS011;51094;53.864;27.676;2022-12-20T15:39:44;12.68;;;12.38;;
64678;SDS011;51094;53.864;27.676;2022-12-20T15:42:12;19.70;;;19.10;;
64678;SDS011;51094;53.864;27.676;2022-12-20T15:44:42;18.83;;;18.23;;
64678;SDS011;51094;53.864;27.676;2022-12-20T15:47:11;18.42;;;17.83;;
64678;SDS011;51094;53.864;27.676;2022-12-20T15:49:39;20.33;;;19.73;;
64678;SDS011;51094;53.864;27.676;2022-12-20T15:52:15;15.82;;;15.32;;
64678;SDS011;51094;53.864;27.676;2022-12-20T15:54:46;23.83;;;23.02;;
64678;SDS011;51094;53.864;27.676;2022-12-20T15:57:13;18.23;;;17.63;;
64678;SDS011;51094;53.864;27.676;2022-12-20T15:59:40;13.60;;;13.20;;
64678;SDS011;51094;53.864;27.676;2022-12-20T16:02:27;20.25;;;19.45;;
64678;SDS011;51094;53.864;27.676;2022-12-20T16:04:55;21.15;;;20.38;;
64678;SDS011;51094;53.864;27.676;2022-12-20T16:07:23;12.05;;;11.65;;
64678;SDS011;51094;53.864;27.676;2022-12-20T16:09:50;23.23;;;22.33;;
64678;SDS011;51094;53.864;27.676;2022-12-20T16:12:22;13.98;;;13.57;;
64678;SDS011;51094;53.864;27.676;2022-12-20T16:14:52;14.95;;;14.45;;
64678;SDS011;51094;53.864;27.676;2022-12-20T16:17:20;12.23;;;11.90;;
64678;SDS011;51094;53.864;27.676;2022-12-20T16:19:47;15.40;;;14.90;;
64678;SDS011;51094;53.864;27.676;2022-12-20T16:22:19;14.30;;;13.90;;
64678;SDS011;51094;53.864;27.676;2022-12-20T16:24:48;15.55;;;15.05;;
64678;SDS011;51094;53.864;27.676;2022-12-20T16:27:15;14.15;;;13.75;;
64678;SDS011;51094;53.864;27.676;2022-12-20T16:29:42;11.63;;;11.32;;
64678;SDS011;51094;53.864;27.676;2022-12-20T16:32:15;10.98;;;10.68;;
64678;SDS011;51094;53.864;27.676;2022-12-20T16:34:44;12.63;;;12.23;;
64678;SDS011;51094;53.864;27.676;2022-12-20T16:37:14;14.65;;;14.25;;
64678;SDS011;51094;53.864;27.676;2022-12-20T16:39:41;15.40;;;14.90;;
64678;SDS011;51094;53.864;27.676;2022-12-20T16:42:18;11.82;;;11.52;;
64678;SDS011;51094;53.864;27.676;2022-12-20T16:44:52;12.13;;;11.82;;
64678;SDS011;51094;53.864;27.676;2022-12-20T16:47:20;11.60;;;11.30;;
64678;SDS011;51094;53.864;27.676;2022-12-20T16:49:47;10.10;;;9.80;;
64678;SDS011;51094;53.864;27.676;2022-12-20T16:52:19;10.40;;;10.10;;
64678;SDS011;51094;53.864;27.676;2022-12-20T16:54:47;11.90;;;11.60;;
64678;SDS011;51094;53.864;27.676;2022-12-20T16:57:15;9.40;;;9.20;;
64678;SDS011;51094;53.864;27.676;2022-12-20T16:59:41;9.95;;;9.75;;
64678;SDS011;51094;53.864;27.676;2022-12-20T17:02:16;10.48;;;10.18;;
64678;SDS011;51094;53.864;27.676;2022-12-20T17:04:53;10.45;;;10.15;;
64678;SDS011;51094;53.864;27.676;2022-12-20T17:07:20;10.32;;;10.07;;